sensor_id;sensor_type;location;lat;lon;timestamp;P1;durP1;ratioP1;P2;durP2;ratioP2
13279;SDS011;6708;49.814;8.652;2022-09-02T00:01:15;1.70;;;1.60;;
13279;SDS011;6708;49.814;8.652;2022-09-02T00:03:45;1.23;;;1.23;;
13279;SDS011;6708;49.814;8.652;2022-09-02T00:06:14;1.50;;;1.50;;
13279;SDS011;6708;49.814;8.652;2022-09-02T00:08:44;1.90;;;1.40;;
13279;SDS011;6708;49.814;8.652;2022-09-02T00:11:17;1.20;;;1.20;;
13279;SDS011;6708;49.814;8.652;2022-09-02T00:13:47;3.43;;;1.20;;
13279;SDS011;6708;49.814;8.652;2022-09-02T00:16:17;1.57;;;1.47;;
13279;SDS011;6708;49.814;8.652;2022-09-02T00:18:48;1.30;;;1.30;;
13279;SDS011;6708;49.814;8.652;2022-09-02T00:21:17;1.30;;;1.23;;
13279;SDS011;6708;49.814;8.652;2022-09-02T00:23:47;1.57;;;1.47;;
13279;SDS011;6708;49.814;8.652;2022-09-02T00:26:19;1.50;;;1.50;;
13279;SDS011;6708;49.814;8.652;2022-09-02T00:28:48;1.57;;;1.47;;
13279;SDS011;6708;49.814;8.652;2022-09-02T00:31:17;1.83;;;1.53;;
13279;SDS011;6708;49.814;8.652;2022-09-02T00:33:46;1.30;;;1.20;;
13279;SDS011;6708;49.814;8.652;2022-09-02T00:36:15;1.50;;;1.40;;
13279;SDS011;6708;49.814;8.652;2022-09-02T00:38:44;1.33;;;1.30;;
13279;SDS011;6708;49.814;8.652;2022-09-02T00:41:12;1.70;;;1.60;;
13279;SDS011;6708;49.814;8.652;2022-09-02T00:43:45;1.27;;;1.23;;
13279;SDS011;6708;49.814;8.652;2022-09-02T00:46:15;1.50;;;1.50;;
13279;SDS011;6708;49.814;8.652;2022-09-02T00:48:47;1.73;;;1.63;;
13279;SDS011;6708;49.814;8.652;2022-09-02T00:51:20;1.47;;;1.47;;
13279;SDS011;6708;49.814;8.652;2022-09-02T00:53:49;3.17;;;1.33;;
13279;SDS011;6708;49.814;8.652;2022-09-02T00:56:19;1.40;;;1.30;;
13279;SDS011;6708;49.814;8.652;2022-09-02T00:58:53;1.30;;;1.30;;
13279;SDS011;6708;49.814;8.652;2022-09-02T01:01:22;2.87;;;1.40;;
13279;SDS011;6708;49.814;8.652;2022-09-02T01:03:51;1.10;;;1.10;;
13279;SDS011;6708;49.814;8.652;2022-09-02T01:06:21;2.07;;;1.40;;
13279;SDS011;6708;49.814;8.652;2022-09-02T01:08:52;1.60;;;1.60;;
13279;SDS011;6708;49.814;8.652;2022-09-02T01:11:26;1.20;;;1.20;;
13279;SDS011;6708;49.814;8.652;2022-09-02T01:13:59;1.73;;;1.63;;
13279;SDS011;6708;49.814;8.652;2022-09-02T01:16:30;1.47;;;1.47;;
13279;SDS011;6708;49.814;8.652;2022-09-02T01:19:02;1.27;;;1.27;;
13279;SDS011;6708;49.814;8.652;2022-09-02T01:21:35;1.77;;;1.67;;
13279;SDS011;6708;49.814;8.652;2022-09-02T01:24:07;1.57;;;1.57;;
13279;SDS011;6708;49.814;8.652;2022-09-02T01:26:35;1.77;;;1.67;;
13279;SDS011;6708;49.814;8.652;2022-09-02T01:29:04;1.60;;;1.40;;
13279;SDS011;6708;49.814;8.652;2022-09-02T01:31:32;1.80;;;1.70;;
13279;SDS011;6708;49.814;8.652;2022-09-02T01:34:01;1.57;;;1.50;;
13279;SDS011;6708;49.814;8.652;2022-09-02T01:36:30;1.80;;;1.70;;
13279;SDS011;6708;49.814;8.652;2022-09-02T01:38:59;1.63;;;1.53;;
13279;SDS011;6708;49.814;8.652;2022-09-02T01:41:30;1.80;;;1.70;;
13279;SDS011;6708;49.814;8.652;2022-09-02T01:43:59;1.47;;;1.47;;
13279;SDS011;6708;49.814;8.652;2022-09-02T01:46:28;1.50;;;1.50;;
13279;SDS011;6708;49.814;8.652;2022-09-02T01:48:57;1.60;;;1.50;;
13279;SDS011;6708;49.814;8.652;2022-09-02T01:51:26;1.60;;;1.50;;
13279;SDS011;6708;49.814;8.652;2022-09-02T01:53:55;1.60;;;1.50;;
13279;SDS011;6708;49.814;8.652;2022-09-02T01:56:24;1.60;;;1.50;;
13279;SDS011;6708;49.814;8.652;2022-09-02T01:58:55;1.83;;;1.73;;
13279;SDS011;6708;49.814;8.652;2022-09-02T02:01:24;1.13;;;1.13;;
13279;SDS011;6708;49.814;8.652;2022-09-02T02:03:53;2.07;;;1.93;;
13279;SDS011;6708;49.814;8.652;2022-09-02T02:06:22;1.87;;;1.77;;
13279;SDS011;6708;49.814;8.652;2022-09-02T02:08:53;2.10;;;1.90;;
13279;SDS011;6708;49.814;8.652;2022-09-02T02:11:22;1.90;;;1.80;;
13279;SDS011;6708;49.814;8.652;2022-09-02T02:13:58;1.53;;;1.53;;
13279;SDS011;6708;49.814;8.652;2022-09-02T02:16:27;1.63;;;1.53;;
13279;SDS011;6708;49.814;8.652;2022-09-02T02:18:56;1.77;;;1.67;;
13279;SDS011;6708;49.814;8.652;2022-09-02T02:21:24;1.70;;;1.70;;
13279;SDS011;6708;49.814;8.652;2022-09-02T02:23:53;2.23;;;2.13;;
13279;SDS011;6708;49.814;8.652;2022-09-02T02:26:22;1.80;;;1.80;;
13279;SDS011;6708;49.814;8.652;2022-09-02T02:28:50;2.50;;;2.27;;
13279;SDS011;6708;49.814;8.652;2022-09-02T02:31:22;2.10;;;2.00;;
13279;SDS011;6708;49.814;8.652;2022-09-02T02:33:50;1.73;;;1.73;;
13279;SDS011;6708;49.814;8.652;2022-09-02T02:36:20;1.43;;;1.43;;
13279;SDS011;6708;49.814;8.652;2022-09-02T02:38:49;1.73;;;1.63;;
13279;SDS011;6708;49.814;8.652;2022-09-02T02:41:18;2.33;;;2.20;;
13279;SDS011;6708;49.814;8.652;2022-09-02T02:43:46;1.90;;;1.80;;
13279;SDS011;6708;49.814;8.652;2022-09-02T02:46:15;1.87;;;1.77;;
13279;SDS011;6708;49.814;8.652;2022-09-02T02:48:47;1.70;;;1.60;;
13279;SDS011;6708;49.814;8.652;2022-09-02T02:51:15;3.40;;;2.07;;
13279;SDS011;6708;49.814;8.652;2022-09-02T02:53:44;2.00;;;1.90;;
13279;SDS011;6708;49.814;8.652;2022-09-02T02:56:13;1.90;;;1.80;;
13279;SDS011;6708;49.814;8.652;2022-09-02T02:58:41;2.37;;;1.80;;
13279;SDS011;6708;49.814;8.652;2022-09-02T03:01:10;2.07;;;1.97;;
13279;SDS011;6708;49.814;8.652;2022-09-02T03:03:38;1.90;;;1.80;;
13279;SDS011;6708;49.814;8.652;2022-09-02T03:06:11;2.17;;;2.07;;
13279;SDS011;6708;49.814;8.652;2022-09-02T03:08:40;2.10;;;2.00;;
13279;SDS011;6708;49.814;8.652;2022-09-02T03:11:09;3.63;;;1.60;;
13279;SDS011;6708;49.814;8.652;2022-09-02T03:13:39;4.27;;;2.17;;
13279;SDS011;6708;49.814;8.652;2022-09-02T03:16:08;2.00;;;1.90;;
13279;SDS011;6708;49.814;8.652;2022-09-02T03:18:39;1.87;;;1.83;;
13279;SDS011;6708;49.814;8.652;2022-09-02T03:21:08;2.23;;;2.13;;
13279;SDS011;6708;49.814;8.652;2022-09-02T03:23:42;2.20;;;2.10;;
13279;SDS011;6708;49.814;8.652;2022-09-02T03:26:12;1.90;;;1.80;;
13279;SDS011;6708;49.814;8.652;2022-09-02T03:28:42;2.23;;;2.03;;
13279;SDS011;6708;49.814;8.652;2022-09-02T03:31:13;1.50;;;1.50;;
13279;SDS011;6708;49.814;8.652;2022-09-02T03:33:42;2.10;;;2.00;;
13279;SDS011;6708;49.814;8.652;2022-09-02T03:36:20;2.20;;;2.10;;
13279;SDS011;6708;49.814;8.652;2022-09-02T03:38:50;2.50;;;2.30;;
13279;SDS011;6708;49.814;8.652;2022-09-02T03:41:19;2.00;;;1.90;;
13279;SDS011;6708;49.814;8.652;2022-09-02T03:43:47;2.47;;;2.20;;
13279;SDS011;6708;49.814;8.652;2022-09-02T03:46:16;2.20;;;2.10;;
13279;SDS011;6708;49.814;8.652;2022-09-02T03:48:45;2.20;;;1.90;;
13279;SDS011;6708;49.814;8.652;2022-09-02T03:51:16;4.87;;;2.20;;
13279;SDS011;6708;49.814;8.652;2022-09-02T03:53:48;2.43;;;2.10;;
13279;SDS011;6708;49.814;8.652;2022-09-02T03:56:16;3.53;;;2.60;;
13279;SDS011;6708;49.814;8.652;2022-09-02T03:58:46;2.07;;;1.97;;
13279;SDS011;6708;49.814;8.652;2022-09-02T04:01:20;2.10;;;2.00;;
13279;SDS011;6708;49.814;8.652;2022-09-02T04:03:50;2.30;;;2.20;;
13279;SDS011;6708;49.814;8.652;2022-09-02T04:06:20;2.53;;;2.10;;
13279;SDS011;6708;49.814;8.652;2022-09-02T04:08:53;2.03;;;1.93;;
13279;SDS011;6708;49.814;8.652;2022-09-02T04:11:22;2.10;;;2.00;;
13279;SDS011;6708;49.814;8.652;2022-09-02T04:13:52;1.90;;;1.80;;
13279;SDS011;6708;49.814;8.652;2022-09-02T04:23:23;2.20;;;1.77;;
13279;SDS011;6708;49.814;8.652;2022-09-02T04:25:55;3.00;;;2.73;;
13279;SDS011;6708;49.814;8.652;2022-09-02T04:28:24;1.80;;;1.70;;
13279;SDS011;6708;49.814;8.652;2022-09-02T04:30:53;2.33;;;2.23;;
13279;SDS011;6708;49.814;8.652;2022-09-02T04:33:23;2.13;;;2.03;;
13279;SDS011;6708;49.814;8.652;2022-09-02T04:35:52;2.23;;;2.13;;
13279;SDS011;6708;49.814;8.652;2022-09-02T04:38:20;1.93;;;1.70;;
13279;SDS011;6708;49.814;8.652;2022-09-02T04:40:49;1.77;;;1.77;;
13279;SDS011;6708;49.814;8.652;2022-09-02T04:43:20;1.97;;;1.87;;
13279;SDS011;6708;49.814;8.652;2022-09-02T04:45:50;1.93;;;1.83;;
13279;SDS011;6708;49.814;8.652;2022-09-02T04:48:18;2.37;;;2.27;;
13279;SDS011;6708;49.814;8.652;2022-09-02T04:50:47;2.20;;;2.10;;
13279;SDS011;6708;49.814;8.652;2022-09-02T04:53:18;2.00;;;1.97;;
13279;SDS011;6708;49.814;8.652;2022-09-02T04:55:46;2.27;;;2.17;;
13279;SDS011;6708;49.814;8.652;2022-09-02T04:58:15;2.03;;;1.93;;
13279;SDS011;6708;49.814;8.652;2022-09-02T05:00:49;2.03;;;2.00;;
13279;SDS011;6708;49.814;8.652;2022-09-02T05:03:18;2.50;;;2.40;;
13279;SDS011;6708;49.814;8.652;2022-09-02T05:05:56;2.20;;;2.10;;
13279;SDS011;6708;49.814;8.652;2022-09-02T05:08:26;2.07;;;1.97;;
13279;SDS011;6708;49.814;8.652;2022-09-02T05:10:55;2.10;;;2.00;;
13279;SDS011;6708;49.814;8.652;2022-09-02T05:13:24;1.80;;;1.77;;
13279;SDS011;6708;49.814;8.652;2022-09-02T05:15:56;2.07;;;1.97;;
13279;SDS011;6708;49.814;8.652;2022-09-02T05:18:25;2.23;;;2.03;;
13279;SDS011;6708;49.814;8.652;2022-09-02T05:20:55;2.53;;;2.43;;
13279;SDS011;6708;49.814;8.652;2022-09-02T05:23:24;1.80;;;1.70;;
13279;SDS011;6708;49.814;8.652;2022-09-02T05:25:54;2.00;;;1.90;;
13279;SDS011;6708;49.814;8.652;2022-09-02T05:28:22;2.17;;;2.07;;
13279;SDS011;6708;49.814;8.652;2022-09-02T05:30:51;2.97;;;1.93;;
13279;SDS011;6708;49.814;8.652;2022-09-02T05:33:22;2.47;;;2.37;;
13279;SDS011;6708;49.814;8.652;2022-09-02T05:35:52;3.70;;;2.00;;
13279;SDS011;6708;49.814;8.652;2022-09-02T05:38:21;3.13;;;2.57;;
13279;SDS011;6708;49.814;8.652;2022-09-02T05:40:50;2.57;;;2.37;;
13279;SDS011;6708;49.814;8.652;2022-09-02T05:43:19;2.20;;;1.93;;
13279;SDS011;6708;49.814;8.652;2022-09-02T05:45:47;1.83;;;1.73;;
13279;SDS011;6708;49.814;8.652;2022-09-02T05:48:17;2.33;;;2.17;;
13279;SDS011;6708;49.814;8.652;2022-09-02T05:51:04;2.07;;;1.97;;
13279;SDS011;6708;49.814;8.652;2022-09-02T05:53:34;1.97;;;1.87;;
13279;SDS011;6708;49.814;8.652;2022-09-02T05:56:03;1.97;;;1.87;;
13279;SDS011;6708;49.814;8.652;2022-09-02T05:58:33;2.30;;;2.20;;
13279;SDS011;6708;49.814;8.652;2022-09-02T06:01:05;2.90;;;2.13;;
13279;SDS011;6708;49.814;8.652;2022-09-02T06:03:35;2.37;;;2.17;;
13279;SDS011;6708;49.814;8.652;2022-09-02T06:06:08;2.37;;;2.10;;
13279;SDS011;6708;49.814;8.652;2022-09-02T06:08:39;2.70;;;2.00;;
13279;SDS011;6708;49.814;8.652;2022-09-02T06:11:08;2.30;;;2.20;;
13279;SDS011;6708;49.814;8.652;2022-09-02T06:13:40;2.13;;;1.90;;
13279;SDS011;6708;49.814;8.652;2022-09-02T06:16:12;2.07;;;1.90;;
13279;SDS011;6708;49.814;8.652;2022-09-02T06:18:42;2.13;;;2.00;;
13279;SDS011;6708;49.814;8.652;2022-09-02T06:21:13;1.70;;;1.60;;
13279;SDS011;6708;49.814;8.652;2022-09-02T06:23:46;1.73;;;1.70;;
13279;SDS011;6708;49.814;8.652;2022-09-02T06:26:15;1.87;;;1.77;;
13279;SDS011;6708;49.814;8.652;2022-09-02T06:28:45;1.77;;;1.67;;
13279;SDS011;6708;49.814;8.652;2022-09-02T06:31:15;2.43;;;2.20;;
13279;SDS011;6708;49.814;8.652;2022-09-02T06:33:46;2.00;;;1.90;;
13279;SDS011;6708;49.814;8.652;2022-09-02T06:36:19;1.80;;;1.70;;
13279;SDS011;6708;49.814;8.652;2022-09-02T06:38:50;2.00;;;1.80;;
13279;SDS011;6708;49.814;8.652;2022-09-02T06:41:21;1.63;;;1.33;;
13279;SDS011;6708;49.814;8.652;2022-09-02T06:43:53;1.40;;;1.40;;
13279;SDS011;6708;49.814;8.652;2022-09-02T06:46:27;2.33;;;1.20;;
13279;SDS011;6708;49.814;8.652;2022-09-02T06:48:59;1.70;;;1.60;;
13279;SDS011;6708;49.814;8.652;2022-09-02T06:51:30;1.50;;;1.40;;
13279;SDS011;6708;49.814;8.652;2022-09-02T06:54:02;1.63;;;1.63;;
13279;SDS011;6708;49.814;8.652;2022-09-02T06:56:34;1.37;;;1.37;;
13279;SDS011;6708;49.814;8.652;2022-09-02T06:59:04;6.30;;;1.70;;
13279;SDS011;6708;49.814;8.652;2022-09-02T07:01:51;1.67;;;1.40;;
13279;SDS011;6708;49.814;8.652;2022-09-02T07:04:21;1.67;;;1.67;;
13279;SDS011;6708;49.814;8.652;2022-09-02T07:07:07;1.40;;;1.40;;
13279;SDS011;6708;49.814;8.652;2022-09-02T07:09:47;2.63;;;1.63;;
13279;SDS011;6708;49.814;8.652;2022-09-02T07:12:16;1.70;;;1.60;;
13279;SDS011;6708;49.814;8.652;2022-09-02T07:14:50;1.43;;;1.30;;
13279;SDS011;6708;49.814;8.652;2022-09-02T07:17:24;1.53;;;1.43;;
13279;SDS011;6708;49.814;8.652;2022-09-02T07:19:58;1.50;;;1.40;;
13279;SDS011;6708;49.814;8.652;2022-09-02T07:22:34;2.67;;;1.60;;
13279;SDS011;6708;49.814;8.652;2022-09-02T07:25:04;1.60;;;1.50;;
13279;SDS011;6708;49.814;8.652;2022-09-02T07:27:35;1.30;;;1.30;;
13279;SDS011;6708;49.814;8.652;2022-09-02T07:30:04;1.20;;;1.10;;
13279;SDS011;6708;49.814;8.652;2022-09-02T07:32:37;1.13;;;1.03;;
13279;SDS011;6708;49.814;8.652;2022-09-02T07:35:07;1.60;;;1.17;;
13279;SDS011;6708;49.814;8.652;2022-09-02T07:37:39;0.87;;;0.87;;
13279;SDS011;6708;49.814;8.652;2022-09-02T07:40:09;1.23;;;1.07;;
13279;SDS011;6708;49.814;8.652;2022-09-02T07:42:40;1.53;;;1.37;;
13279;SDS011;6708;49.814;8.652;2022-09-02T07:45:10;1.00;;;1.00;;
13279;SDS011;6708;49.814;8.652;2022-09-02T07:47:41;1.27;;;0.80;;
13279;SDS011;6708;49.814;8.652;2022-09-02T07:50:11;1.30;;;1.20;;
13279;SDS011;6708;49.814;8.652;2022-09-02T07:52:43;1.10;;;1.10;;
13279;SDS011;6708;49.814;8.652;2022-09-02T07:55:11;0.93;;;0.93;;
13279;SDS011;6708;49.814;8.652;2022-09-02T07:57:41;1.47;;;1.10;;
13279;SDS011;6708;49.814;8.652;2022-09-02T08:00:10;0.90;;;0.90;;
13279;SDS011;6708;49.814;8.652;2022-09-02T08:02:40;0.80;;;0.80;;
13279;SDS011;6708;49.814;8.652;2022-09-02T08:05:15;1.07;;;1.07;;
13279;SDS011;6708;49.814;8.652;2022-09-02T08:07:46;1.20;;;1.10;;
13279;SDS011;6708;49.814;8.652;2022-09-02T08:10:14;1.13;;;1.03;;
13279;SDS011;6708;49.814;8.652;2022-09-02T08:12:45;1.50;;;1.10;;
13279;SDS011;6708;49.814;8.652;2022-09-02T08:15:15;0.70;;;0.70;;
13279;SDS011;6708;49.814;8.652;2022-09-02T08:17:44;1.20;;;1.10;;
13279;SDS011;6708;49.814;8.652;2022-09-02T08:20:13;1.23;;;1.23;;
13279;SDS011;6708;49.814;8.652;2022-09-02T08:22:42;0.97;;;0.97;;
13279;SDS011;6708;49.814;8.652;2022-09-02T08:25:13;1.90;;;1.10;;
13279;SDS011;6708;49.814;8.652;2022-09-02T08:27:42;0.93;;;0.93;;
13279;SDS011;6708;49.814;8.652;2022-09-02T08:30:11;0.87;;;0.83;;
13279;SDS011;6708;49.814;8.652;2022-09-02T08:32:40;0.90;;;0.90;;
13279;SDS011;6708;49.814;8.652;2022-09-02T08:35:09;0.90;;;0.90;;
13279;SDS011;6708;49.814;8.652;2022-09-02T08:37:38;0.70;;;0.70;;
13279;SDS011;6708;49.814;8.652;2022-09-02T08:40:07;0.67;;;0.67;;
13279;SDS011;6708;49.814;8.652;2022-09-02T08:42:44;1.33;;;1.23;;
13279;SDS011;6708;49.814;8.652;2022-09-02T08:45:20;1.03;;;0.90;;
13279;SDS011;6708;49.814;8.652;2022-09-02T08:47:54;1.00;;;0.73;;
13279;SDS011;6708;49.814;8.652;2022-09-02T08:50:26;0.82;;;0.82;;
13279;SDS011;6708;49.814;8.652;2022-09-02T08:52:56;0.73;;;0.73;;
13279;SDS011;6708;49.814;8.652;2022-09-02T08:55:34;0.63;;;0.57;;
13279;SDS011;6708;49.814;8.652;2022-09-02T08:58:05;2.42;;;1.00;;
13279;SDS011;6708;49.814;8.652;2022-09-02T09:00:35;0.73;;;0.73;;
13279;SDS011;6708;49.814;8.652;2022-09-02T09:03:09;1.15;;;0.80;;
13279;SDS011;6708;49.814;8.652;2022-09-02T09:05:44;0.50;;;0.50;;
13279;SDS011;6708;49.814;8.652;2022-09-02T09:08:19;0.50;;;0.50;;
13279;SDS011;6708;49.814;8.652;2022-09-02T09:10:58;0.63;;;0.63;;
13279;SDS011;6708;49.814;8.652;2022-09-02T09:16:28;0.70;;;0.70;;
13279;SDS011;6708;49.814;8.652;2022-09-02T09:19:05;1.02;;;0.60;;
13279;SDS011;6708;49.814;8.652;2022-09-02T09:21:39;0.73;;;0.73;;
13279;SDS011;6708;49.814;8.652;2022-09-02T09:24:15;0.80;;;0.80;;
13279;SDS011;6708;49.814;8.652;2022-09-02T09:26:56;0.52;;;0.38;;
13279;SDS011;6708;49.814;8.652;2022-09-02T09:29:25;1.02;;;0.57;;
13279;SDS011;6708;49.814;8.652;2022-09-02T09:31:55;0.57;;;0.57;;
13279;SDS011;6708;49.814;8.652;2022-09-02T09:34:45;1.27;;;0.60;;
13279;SDS011;6708;49.814;8.652;2022-09-02T09:37:26;0.40;;;0.38;;
13279;SDS011;6708;49.814;8.652;2022-09-02T09:39:56;0.90;;;0.50;;
13279;SDS011;6708;49.814;8.652;2022-09-02T09:42:34;0.60;;;0.60;;
13279;SDS011;6708;49.814;8.652;2022-09-02T09:45:14;2.50;;;0.73;;
13279;SDS011;6708;49.814;8.652;2022-09-02T09:47:45;1.67;;;0.30;;
13279;SDS011;6708;49.814;8.652;2022-09-02T09:50:33;0.75;;;0.50;;
13279;SDS011;6708;49.814;8.652;2022-09-02T09:53:12;0.95;;;0.70;;
13279;SDS011;6708;49.814;8.652;2022-09-02T09:55:52;1.48;;;0.60;;
13279;SDS011;6708;49.814;8.652;2022-09-02T09:58:26;0.60;;;0.60;;
13279;SDS011;6708;49.814;8.652;2022-09-02T10:00:57;0.40;;;0.40;;
13279;SDS011;6708;49.814;8.652;2022-09-02T10:03:28;1.75;;;0.68;;
13279;SDS011;6708;49.814;8.652;2022-09-02T10:05:58;0.65;;;0.55;;
13279;SDS011;6708;49.814;8.652;2022-09-02T10:08:27;0.50;;;0.50;;
13279;SDS011;6708;49.814;8.652;2022-09-02T10:10:57;0.57;;;0.57;;
13279;SDS011;6708;49.814;8.652;2022-09-02T10:13:30;1.27;;;0.68;;
13279;SDS011;6708;49.814;8.652;2022-09-02T10:16:03;0.65;;;0.65;;
13279;SDS011;6708;49.814;8.652;2022-09-02T10:18:42;1.65;;;0.70;;
13279;SDS011;6708;49.814;8.652;2022-09-02T10:21:15;0.50;;;0.50;;
13279;SDS011;6708;49.814;8.652;2022-09-02T10:24:03;0.60;;;0.60;;
13279;SDS011;6708;49.814;8.652;2022-09-02T10:26:40;7.00;;;0.60;;
13279;SDS011;6708;49.814;8.652;2022-09-02T10:29:20;1.60;;;0.63;;
13279;SDS011;6708;49.814;8.652;2022-09-02T10:31:58;0.47;;;0.43;;
13279;SDS011;6708;49.814;8.652;2022-09-02T10:34:37;0.60;;;0.60;;
13279;SDS011;6708;49.814;8.652;2022-09-02T10:37:11;0.93;;;0.60;;
13279;SDS011;6708;49.814;8.652;2022-09-02T10:39:52;1.70;;;0.68;;
13279;SDS011;6708;49.814;8.652;2022-09-02T10:42:32;4.43;;;0.63;;
13279;SDS011;6708;49.814;8.652;2022-09-02T10:45:12;0.50;;;0.50;;
13279;SDS011;6708;49.814;8.652;2022-09-02T10:47:44;0.40;;;0.40;;
13279;SDS011;6708;49.814;8.652;2022-09-02T10:50:17;0.55;;;0.55;;
13279;SDS011;6708;49.814;8.652;2022-09-02T10:53:07;0.60;;;0.60;;
13279;SDS011;6708;49.814;8.652;2022-09-02T10:55:44;0.60;;;0.60;;
13279;SDS011;6708;49.814;8.652;2022-09-02T10:58:20;0.60;;;0.60;;
13279;SDS011;6708;49.814;8.652;2022-09-02T11:00:54;0.68;;;0.68;;
13279;SDS011;6708;49.814;8.652;2022-09-02T11:03:26;0.57;;;0.57;;
13279;SDS011;6708;49.814;8.652;2022-09-02T11:05:57;0.57;;;0.57;;
13279;SDS011;6708;49.814;8.652;2022-09-02T11:08:33;0.45;;;0.45;;
13279;SDS011;6708;49.814;8.652;2022-09-02T11:11:05;1.65;;;0.75;;
13279;SDS011;6708;49.814;8.652;2022-09-02T11:13:37;0.40;;;0.40;;
13279;SDS011;6708;49.814;8.652;2022-09-02T11:16:13;0.82;;;0.50;;
13279;SDS011;6708;49.814;8.652;2022-09-02T11:18:45;1.20;;;0.63;;
13279;SDS011;6708;49.814;8.652;2022-09-02T11:21:20;1.85;;;0.60;;
13279;SDS011;6708;49.814;8.652;2022-09-02T11:23:54;0.52;;;0.52;;
13279;SDS011;6708;49.814;8.652;2022-09-02T11:26:28;0.50;;;0.50;;
13279;SDS011;6708;49.814;8.652;2022-09-02T11:29:04;1.45;;;0.40;;
13279;SDS011;6708;49.814;8.652;2022-09-02T11:31:40;1.27;;;0.57;;
13279;SDS011;6708;49.814;8.652;2022-09-02T11:34:15;0.50;;;0.50;;
13279;SDS011;6708;49.814;8.652;2022-09-02T11:36:47;3.45;;;0.60;;
13279;SDS011;6708;49.814;8.652;2022-09-02T11:39:17;0.57;;;0.57;;
13279;SDS011;6708;49.814;8.652;2022-09-02T11:41:51;0.80;;;0.80;;
13279;SDS011;6708;49.814;8.652;2022-09-02T11:44:35;0.50;;;0.50;;
13279;SDS011;6708;49.814;8.652;2022-09-02T11:50:46;3.17;;;0.60;;
13279;SDS011;6708;49.814;8.652;2022-09-02T11:53:26;1.00;;;0.60;;
13279;SDS011;6708;49.814;8.652;2022-09-02T11:55:57;0.57;;;0.55;;
13279;SDS011;6708;49.814;8.652;2022-09-02T11:58:34;1.02;;;0.40;;
13279;SDS011;6708;49.814;8.652;2022-09-02T12:03:53;2.17;;;0.80;;
13279;SDS011;6708;49.814;8.652;2022-09-02T12:06:28;3.20;;;0.60;;
13279;SDS011;6708;49.814;8.652;2022-09-02T12:09:00;1.95;;;0.57;;
13279;SDS011;6708;49.814;8.652;2022-09-02T12:11:43;0.40;;;0.40;;
13279;SDS011;6708;49.814;8.652;2022-09-02T12:17:37;1.02;;;0.57;;
13279;SDS011;6708;49.814;8.652;2022-09-02T12:20:08;0.47;;;0.45;;
13279;SDS011;6708;49.814;8.652;2022-09-02T12:22:40;0.40;;;0.40;;
13279;SDS011;6708;49.814;8.652;2022-09-02T12:28:09;1.38;;;0.50;;
13279;SDS011;6708;49.814;8.652;2022-09-02T12:33:39;0.57;;;0.57;;
13279;SDS011;6708;49.814;8.652;2022-09-02T12:36:09;0.77;;;0.57;;
13279;SDS011;6708;49.814;8.652;2022-09-02T12:42:14;0.73;;;0.60;;
13279;SDS011;6708;49.814;8.652;2022-09-02T12:44:48;0.30;;;0.30;;
13279;SDS011;6708;49.814;8.652;2022-09-02T12:47:22;4.55;;;0.80;;
13279;SDS011;6708;49.814;8.652;2022-09-02T12:49:59;0.57;;;0.43;;
13279;SDS011;6708;49.814;8.652;2022-09-02T12:52:46;0.70;;;0.47;;
13279;SDS011;6708;49.814;8.652;2022-09-02T12:55:20;0.40;;;0.35;;
13279;SDS011;6708;49.814;8.652;2022-09-02T12:57:52;0.40;;;0.40;;
13279;SDS011;6708;49.814;8.652;2022-09-02T13:00:27;0.47;;;0.38;;
13279;SDS011;6708;49.814;8.652;2022-09-02T13:03:02;0.40;;;0.40;;
13279;SDS011;6708;49.814;8.652;2022-09-02T13:05:47;2.38;;;0.65;;
13279;SDS011;6708;49.814;8.652;2022-09-02T13:11:40;3.30;;;0.40;;
13279;SDS011;6708;49.814;8.652;2022-09-02T13:14:34;0.50;;;0.50;;
13279;SDS011;6708;49.814;8.652;2022-09-02T13:17:18;2.45;;;0.50;;
13279;SDS011;6708;49.814;8.652;2022-09-02T13:23:00;0.40;;;0.40;;
13279;SDS011;6708;49.814;8.652;2022-09-02T13:31:35;0.52;;;0.50;;
13279;SDS011;6708;49.814;8.652;2022-09-02T13:34:04;0.40;;;0.40;;
13279;SDS011;6708;49.814;8.652;2022-09-02T13:36:34;0.50;;;0.50;;
13279;SDS011;6708;49.814;8.652;2022-09-02T13:39:11;1.00;;;0.60;;
13279;SDS011;6708;49.814;8.652;2022-09-02T13:41:43;6.47;;;0.75;;
13279;SDS011;6708;49.814;8.652;2022-09-02T13:44:18;0.40;;;0.40;;
13279;SDS011;6708;49.814;8.652;2022-09-02T13:46:48;0.63;;;0.30;;
13279;SDS011;6708;49.814;8.652;2022-09-02T13:49:21;0.45;;;0.45;;
13279;SDS011;6708;49.814;8.652;2022-09-02T13:51:51;0.20;;;0.20;;
13279;SDS011;6708;49.814;8.652;2022-09-02T13:54:26;0.30;;;0.30;;
13279;SDS011;6708;49.814;8.652;2022-09-02T13:57:00;0.30;;;0.30;;
13279;SDS011;6708;49.814;8.652;2022-09-02T13:59:31;0.45;;;0.45;;
13279;SDS011;6708;49.814;8.652;2022-09-02T14:02:14;0.60;;;0.60;;
13279;SDS011;6708;49.814;8.652;2022-09-02T14:04:48;0.40;;;0.40;;
13279;SDS011;6708;49.814;8.652;2022-09-02T14:07:18;0.38;;;0.38;;
13279;SDS011;6708;49.814;8.652;2022-09-02T14:09:49;0.40;;;0.40;;
13279;SDS011;6708;49.814;8.652;2022-09-02T14:12:21;0.40;;;0.40;;
13279;SDS011;6708;49.814;8.652;2022-09-02T14:14:50;6.95;;;0.63;;
13279;SDS011;6708;49.814;8.652;2022-09-02T14:17:20;3.20;;;0.47;;
13279;SDS011;6708;49.814;8.652;2022-09-02T14:19:49;0.40;;;0.40;;
13279;SDS011;6708;49.814;8.652;2022-09-02T14:22:23;0.20;;;0.20;;
13279;SDS011;6708;49.814;8.652;2022-09-02T14:24:54;0.68;;;0.32;;
13279;SDS011;6708;49.814;8.652;2022-09-02T14:27:25;0.32;;;0.30;;
13279;SDS011;6708;49.814;8.652;2022-09-02T14:29:55;0.50;;;0.50;;
13279;SDS011;6708;49.814;8.652;2022-09-02T14:32:25;2.03;;;0.50;;
13279;SDS011;6708;49.814;8.652;2022-09-02T14:35:08;1.65;;;0.40;;
13279;SDS011;6708;49.814;8.652;2022-09-02T14:37:49;0.50;;;0.50;;
13279;SDS011;6708;49.814;8.652;2022-09-02T14:40:30;1.30;;;0.40;;
13279;SDS011;6708;49.814;8.652;2022-09-02T14:43:02;0.43;;;0.43;;
13279;SDS011;6708;49.814;8.652;2022-09-02T14:45:32;0.40;;;0.40;;
13279;SDS011;6708;49.814;8.652;2022-09-02T14:48:02;0.60;;;0.60;;
13279;SDS011;6708;49.814;8.652;2022-09-02T14:50:38;5.82;;;0.60;;
13279;SDS011;6708;49.814;8.652;2022-09-02T14:53:08;0.70;;;0.50;;
13279;SDS011;6708;49.814;8.652;2022-09-02T14:55:47;0.40;;;0.40;;
13279;SDS011;6708;49.814;8.652;2022-09-02T14:58:20;0.40;;;0.40;;
13279;SDS011;6708;49.814;8.652;2022-09-02T15:00:49;0.57;;;0.57;;
13279;SDS011;6708;49.814;8.652;2022-09-02T15:03:19;0.80;;;0.50;;
13279;SDS011;6708;49.814;8.652;2022-09-02T15:05:49;0.43;;;0.43;;
13279;SDS011;6708;49.814;8.652;2022-09-02T15:08:18;0.88;;;0.47;;
13279;SDS011;6708;49.814;8.652;2022-09-02T15:10:47;0.25;;;0.25;;
13279;SDS011;6708;49.814;8.652;2022-09-02T15:13:20;0.60;;;0.60;;
13279;SDS011;6708;49.814;8.652;2022-09-02T15:15:52;0.40;;;0.40;;
13279;SDS011;6708;49.814;8.652;2022-09-02T15:18:22;1.60;;;0.57;;
13279;SDS011;6708;49.814;8.652;2022-09-02T15:20:51;0.43;;;0.43;;
13279;SDS011;6708;49.814;8.652;2022-09-02T15:23:19;1.40;;;0.52;;
13279;SDS011;6708;49.814;8.652;2022-09-02T15:25:48;0.28;;;0.28;;
13279;SDS011;6708;49.814;8.652;2022-09-02T15:28:17;0.50;;;0.50;;
13279;SDS011;6708;49.814;8.652;2022-09-02T15:30:48;2.47;;;0.60;;
13279;SDS011;6708;49.814;8.652;2022-09-02T15:33:24;1.90;;;0.30;;
13279;SDS011;6708;49.814;8.652;2022-09-02T15:35:52;1.23;;;0.68;;
13279;SDS011;6708;49.814;8.652;2022-09-02T15:38:21;1.42;;;0.40;;
13279;SDS011;6708;49.814;8.652;2022-09-02T15:40:49;1.70;;;0.55;;
13279;SDS011;6708;49.814;8.652;2022-09-02T15:43:20;0.45;;;0.45;;
13279;SDS011;6708;49.814;8.652;2022-09-02T15:45:49;0.80;;;0.50;;
13279;SDS011;6708;49.814;8.652;2022-09-02T15:48:17;0.20;;;0.20;;
13279;SDS011;6708;49.814;8.652;2022-09-02T15:50:46;0.50;;;0.50;;
13279;SDS011;6708;49.814;8.652;2022-09-02T15:53:14;3.95;;;0.60;;
13279;SDS011;6708;49.814;8.652;2022-09-02T15:55:43;1.95;;;0.68;;
13279;SDS011;6708;49.814;8.652;2022-09-02T15:58:11;0.32;;;0.32;;
13279;SDS011;6708;49.814;8.652;2022-09-02T16:00:42;0.40;;;0.40;;
13279;SDS011;6708;49.814;8.652;2022-09-02T16:03:10;0.50;;;0.50;;
13279;SDS011;6708;49.814;8.652;2022-09-02T16:05:41;0.80;;;0.20;;
13279;SDS011;6708;49.814;8.652;2022-09-02T16:08:09;0.40;;;0.40;;
13279;SDS011;6708;49.814;8.652;2022-09-02T16:10:38;1.55;;;0.52;;